TimeEST,TemperatureF,Dew PointF,Humidity,Sea Level PressureIn,VisibilityMPH,Wind Direction,Wind SpeedMPH,Gust SpeedMPH,PrecipitationIn,Events,Conditions,WindDirDegrees,DateUTC
12:53 AM,30.9,23.0,72,30.19,7.0,SSE,4.6,-,N/A,,Overcast,160,2013-02-07 05:53:00
1:53 AM,30.9,24.1,76,30.19,6.0,Calm,Calm,-,N/A,,Haze,0,2013-02-07 06:53:00
2:53 AM,30.0,24.1,79,30.17,6.0,ESE,6.9,-,N/A,,Haze,110,2013-02-07 07:53:00
3:53 AM,30.0,23.0,75,30.16,6.0,ESE,6.9,-,N/A,,Haze,120,2013-02-07 08:53:00
4:53 AM,28.9,23.0,78,30.16,6.0,ESE,8.1,-,N/A,,Haze,120,2013-02-07 09:53:00
5:53 AM,28.9,23.0,78,30.15,6.0,ESE,9.2,-,N/A,,Haze,120,2013-02-07 10:53:00
6:53 AM,30.0,23.0,75,30.14,5.0,SE,9.2,-,N/A,,Haze,140,2013-02-07 11:53:00
7:53 AM,30.0,23.0,75,30.14,5.0,SE,10.4,-,N/A,,Haze,140,2013-02-07 12:53:00
8:51 AM,30.2,24.8,80,30.11,1.8,ESE,10.4,-,0.00,Snow,Light Snow,120,2013-02-07 13:51:00
8:52 AM,30.0,24.1,79,30.13,1.5,ESE,9.2,-,0.00,Snow,Light Snow,120,2013-02-07 13:52:00
9:00 AM,30.2,24.8,80,30.10,1.0,ESE,9.2,-,0.00,Snow,Light Snow,120,2013-02-07 14:00:00
9:22 AM,30.2,24.8,80,30.10,1.5,SE,11.5,-,0.00,Snow,Light Snow,130,2013-02-07 14:22:00
9:32 AM,30.2,24.8,80,30.09,0.8,SE,11.5,-,0.01,Snow,Light Snow,130,2013-02-07 14:32:00
9:53 AM,30.0,26.1,85,30.10,1.8,ESE,10.4,-,0.03,,Overcast,120,2013-02-07 14:53:00
10:03 AM,30.2,26.6,86,30.08,2.0,ESE,10.4,-,0.01,,Overcast,120,2013-02-07 15:03:00
10:20 AM,30.2,26.6,86,30.07,2.0,SE,10.4,-,0.03,Rain,Light Freezing Rain,130,2013-02-07 15:20:00
10:23 AM,30.2,26.6,86,30.06,1.8,SE,10.4,-,0.04,Rain,Light Freezing Rain,130,2013-02-07 15:23:00
10:36 AM,30.2,26.6,86,30.06,1.8,ESE,10.4,-,0.05,Rain,Light Freezing Rain,120,2013-02-07 15:36:00
10:43 AM,30.2,26.6,86,30.06,1.5,ESE,10.4,-,0.06,Rain,Light Freezing Rain,120,2013-02-07 15:43:00
10:53 AM,30.9,28.0,89,30.08,1.2,SE,9.2,-,0.09,Rain,Light Freezing Rain,130,2013-02-07 15:53:00
11:25 AM,30.2,28.4,93,30.05,1.5,SE,10.4,-,0.07,Rain,Light Freezing Rain,130,2013-02-07 16:25:00
11:29 AM,32.0,28.4,87,30.05,1.8,SE,10.4,-,0.08,,Overcast,130,2013-02-07 16:29:00
11:39 AM,32.0,28.4,87,30.05,2.0,ESE,8.1,-,0.08,,Overcast,120,2013-02-07 16:39:00
11:53 AM,32.0,28.0,85,30.07,1.8,ESE,8.1,-,0.10,,Overcast,120,2013-02-07 16:53:00
12:17 PM,32.0,28.4,87,30.04,1.8,East,4.6,-,0.01,,Overcast,90,2013-02-07 17:17:00
12:28 PM,32.0,28.4,87,30.03,2.0,East,8.1,-,0.02,,Overcast,100,2013-02-07 17:28:00
12:53 PM,33.1,28.9,85,30.03,2.5,East,5.8,-,0.02,,Overcast,90,2013-02-07 17:53:00
1:53 PM,35.1,30.0,82,29.99,3.0,East,4.6,-,N/A,,Haze,90,2013-02-07 18:53:00
2:22 PM,35.6,30.2,81,29.95,2.5,ENE,4.6,-,N/A,,Overcast,60,2013-02-07 19:22:00
2:36 PM,35.6,30.2,81,29.94,3.0,ENE,5.8,-,N/A,,Haze,70,2013-02-07 19:36:00
2:53 PM,37.0,32.0,82,29.96,3.0,Calm,Calm,-,N/A,,Haze,0,2013-02-07 19:53:00
3:53 PM,37.9,28.9,70,29.93,5.0,East,6.9,-,N/A,,Haze,80,2013-02-07 20:53:00
4:53 PM,37.0,28.0,70,29.89,5.0,East,10.4,-,N/A,,Haze,80,2013-02-07 21:53:00
5:53 PM,37.0,28.9,73,29.88,5.0,East,4.6,-,N/A,,Haze,80,2013-02-07 22:53:00
6:53 PM,37.0,28.9,73,29.89,7.0,Calm,Calm,-,N/A,,Overcast,0,2013-02-07 23:53:00
7:07 PM,35.6,28.4,75,29.88,3.0,Calm,Calm,-,0.00,Snow,Light Snow,0,2013-02-08 00:07:00
7:14 PM,35.6,30.2,81,29.88,1.8,Calm,Calm,-,0.01,Snow,Light Snow,0,2013-02-08 00:14:00
7:25 PM,33.8,30.2,87,29.88,1.0,Calm,Calm,-,0.02,Snow,Light Snow,0,2013-02-08 00:25:00
7:37 PM,33.8,30.2,87,29.87,0.8,ENE,4.6,-,0.05,Snow,Light Snow,70,2013-02-08 00:37:00
7:53 PM,33.1,32.0,96,29.88,0.8,NE,3.5,-,0.08,Snow,Light Snow,50,2013-02-08 00:53:00
8:09 PM,33.8,32.0,93,29.86,0.5,East,4.6,-,0.05,Fog-Snow,Snow,80,2013-02-08 01:09:00
8:18 PM,33.8,30.2,87,29.86,0.8,East,4.6,-,0.07,Snow,Light Snow,80,2013-02-08 01:18:00
8:24 PM,33.8,30.2,87,29.86,1.0,ENE,4.6,-,0.08,Snow,Light Snow,70,2013-02-08 01:24:00
8:41 PM,33.8,32.0,93,29.85,1.5,ENE,4.6,-,0.12,Rain,Rain,70,2013-02-08 01:41:00
8:53 PM,33.1,32.0,96,29.87,1.8,ENE,6.9,-,0.13,Snow,Light Snow,70,2013-02-08 01:53:00
9:24 PM,33.8,32.0,93,29.84,2.0,ESE,3.5,-,0.03,Rain,Light Rain,120,2013-02-08 02:24:00
9:41 PM,33.8,32.0,93,29.84,2.0,ENE,6.9,-,0.04,Rain,Light Rain,70,2013-02-08 02:41:00
9:53 PM,33.1,32.0,96,29.86,2.0,ENE,4.6,-,0.05,Rain,Light Rain,70,2013-02-08 02:53:00
10:12 PM,33.8,32.0,93,29.84,1.5,NW,3.5,-,0.01,,Overcast,310,2013-02-08 03:12:00
10:53 PM,33.1,32.0,96,29.85,1.8,Calm,Calm,-,0.02,,Overcast,0,2013-02-08 03:53:00
11:01 PM,33.8,33.8,100,29.83,2.0,Calm,Calm,-,0.00,,Overcast,0,2013-02-08 04:01:00
11:19 PM,33.8,32.0,93,29.83,1.8,Calm,Calm,-,0.00,,Overcast,0,2013-02-08 04:19:00
11:36 PM,33.8,33.8,100,29.83,1.2,Calm,Calm,-,0.00,Snow,Light Snow,0,2013-02-08 04:36:00
11:53 PM,33.1,33.1,100,29.86,1.2,Calm,Calm,-,0.00,Snow,Light Snow,0,2013-02-08 04:53:00